Terminal Aerodrome Forecast
Issued by NWS Mt. Holly, NJ

Home | Current Version | Previous Version | Text Only | Print | Product List | Glossary On
Versions: 1 2 3 4 5 6 7 8 9 10 11 12 13 14 15 16 17 18 19 20 21 22 23
000
FTUS41 KPHI 162328
TAFRDG
TAF
KRDG 162328Z 1700/1724 VRB03KT P6SM SCT050 SCT250
     FM170800 VRB03KT 6SM BR SCT250
     FM171300 VRB04KT P6SM SCT070 BKN250
     FM171700 18006KT P6SM BKN040=

USA.gov is the U.S. government's official web portal to all federal, state and local government web resources and services.